EDT,Max TemperatureF,Mean TemperatureF,Min TemperatureF,Max Dew PointF,MeanDew PointF,Min DewpointF,Max Humidity, Mean Humidity, Min Humidity, Max Sea Level PressureIn, Mean Sea Level PressureIn, Min Sea Level PressureIn, Max VisibilityMiles, Mean VisibilityMiles, Min VisibilityMiles, Max Wind SpeedMPH, Mean Wind SpeedMPH, Max Gust SpeedMPH,PrecipitationIn, CloudCover, Events, WindDirDegrees
2013-9-1,89,79,69,73,71,68,100,90,52,30.03,29.98,29.93,10,10,8,14,2,22,0.00,1,Thunderstorm,160
2013-9-2,87,78,69,75,72,68,100,87,58,30.05,29.99,29.97,10,8,5,10,1,,0.00,1,Thunderstorm,166
2013-9-3,86,78,69,77,73,68,100,88,58,30.05,30.00,29.96,10,7,2,12,1,17,0.00,1,Rain-Thunderstorm,180
2013-9-4,89,80,71,77,72,68,100,91,55,30.12,30.05,30.00,10,8,2,23,1,33,0.22,2,Rain-Thunderstorm,69
2013-9-5,91,81,71,75,72,70,100,86,49,30.12,30.07,30.02,10,9,2,14,3,24,0.01,1,Rain-Thunderstorm,51
2013-9-6,91,81,71,77,72,70,100,90,49,30.08,30.04,29.96,10,8,2,28,2,37,0.07,1,Rain-Thunderstorm,43
2013-9-7,73,72,71,73,72,72,100,100,100,30.04,30.01,29.98,10,8,3,7,3,,0.00,1,,23
2013-9-8,,,,,,,,,,,,,,,,,,,,,,
2013-9-9,89,82,75,73,69,63,94,64,43,30.06,30.01,29.97,10,10,8,13,8,21,0.00,1,,61
2013-9-10,89,81,73,75,71,63,100,78,40,30.11,30.06,30.02,10,9,8,15,7,22,0.00,0,,61
2013-9-11,89,81,73,75,72,66,100,81,49,30.10,30.05,30.01,10,9,7,17,6,18,0.00,1,Thunderstorm,68
2013-9-12,87,79,71,77,74,70,100,92,55,30.05,29.99,29.93,10,7,1,7,2,17,0.39,2,Rain-Thunderstorm,91
2013-9-13,87,78,69,75,71,66,100,71,49,29.94,29.89,29.82,10,8,5,10,1,,0.00,1,,244
2013-9-14,91,81,71,75,72,66,100,85,43,30.01,29.91,29.86,9,7,5,17,1,21,0.00,1,Thunderstorm,132
2013-9-15,75,72,69,75,73,70,100,100,89,30.11,30.04,30.00,,,,15,2,,0.43,6,Rain-Thunderstorm,68
2013-9-16,78,74,71,75,73,72,100,98,78,30.08,30.05,30.02,10,6,1,17,2,24,0.10,3,Rain-Thunderstorm,100
2013-9-17,86,78,71,75,72,68,100,88,62,30.08,30.02,29.98,10,8,5,21,3,29,0.00,1,Rain,65
2013-9-18,84,78,71,75,73,72,100,90,66,30.06,30.02,29.98,10,8,4,18,5,26,0.35,3,Rain,49
2013-9-19,86,78,71,75,72,68,100,85,58,30.07,30.02,29.99,9,8,7,14,7,17,0.00,2,Thunderstorm,63
2013-9-20,87,78,69,73,68,64,100,80,46,30.05,29.99,29.93,10,8,6,13,4,17,0.00,1,Rain,69
2013-9-21,87,76,66,73,68,63,100,79,43,29.98,29.87,29.80,10,8,5,8,0,,0.00,0,,191
2013-9-22,80,76,71,77,73,72,100,97,79,29.89,29.83,29.80,10,9,7,13,1,,0.47,1,Rain,168
2013-9-23,82,76,71,77,76,75,100,93,79,29.99,29.93,29.87,9,6,2,9,2,,0.30,6,Rain,96
2013-9-24,78,74,71,75,73,72,100,96,78,29.99,29.93,29.88,10,7,3,12,5,,0.00,4,Rain-Thunderstorm,188
2013-9-25,80,76,71,75,72,68,100,90,65,29.93,29.85,29.82,9,7,2,15,6,21,0.06,4,Rain,231
2013-9-26,87,79,71,75,67,55,100,63,33,29.90,29.84,29.81,7,6,0,15,4,23,0.00,5,Fog,278
2013-9-27,73,71,69,72,70,70,100,95,88,29.97,29.91,29.88,7,6,5,12,6,17,0.00,7,,360
2013-9-28,,,,,,,,,,,,,,,,,,,0.00,,,-1
2013-9-29,86,78,71,72,66,61,100,67,43,30.00,29.96,29.92,,,,12,3,18,0.00,0,,52
2013-9-30,87,76,66,73,67,63,100,78,45,30.04,29.98,29.94,7,7,7,10,1,,0.00,2,,81